createdAt,value
2022-09-23T00:01:19.187Z,81.57
2022-09-23T00:03:46.362Z,81.66
2022-09-23T00:06:19.195Z,81.54
2022-09-23T00:08:46.431Z,81.43
2022-09-23T00:11:16.010Z,81.56
2022-09-23T00:13:45.358Z,81.70
2022-09-23T00:16:15.370Z,81.53
2022-09-23T00:18:43.237Z,81.44
2022-09-23T00:21:13.060Z,81.46
2022-09-23T00:23:43.044Z,81.38
2022-09-23T00:26:14.172Z,81.97
2022-09-23T00:28:41.629Z,81.81
2022-09-23T00:31:14.763Z,81.91
2022-09-23T00:33:41.976Z,81.67
2022-09-23T00:36:11.630Z,82.03
2022-09-23T00:38:38.986Z,81.89
2022-09-23T00:41:06.539Z,81.97
2022-09-23T00:43:53.005Z,81.90
2022-09-23T00:46:29.246Z,81.96
2022-09-23T00:49:22.745Z,81.82
2022-09-23T00:51:55.999Z,81.77
2022-09-23T00:54:25.230Z,82.22
2022-09-23T00:56:52.289Z,82.37
2022-09-23T00:59:20.825Z,82.12
2022-09-23T01:01:50.112Z,81.99
2022-09-23T01:04:17.058Z,82.18
2022-09-23T01:06:43.903Z,82.11
2022-09-23T01:09:10.850Z,82.15
2022-09-23T01:12:10.273Z,82.17
2022-09-23T01:14:43.189Z,82.23
2022-09-23T01:17:31.554Z,82.22
2022-09-23T01:20:29.711Z,82.04
2022-09-23T01:22:56.443Z,82.23
2022-09-23T01:26:00.374Z,82.21
2022-09-23T01:29:02.639Z,82.04
2022-09-23T01:31:39.720Z,82.25
2022-09-23T01:34:38.833Z,82.15
2022-09-23T01:37:16.117Z,82.44
2022-09-23T01:40:14.833Z,82.23
2022-09-23T01:43:00.654Z,82.52
2022-09-23T01:45:37.579Z,82.23
2022-09-23T01:48:15.223Z,82.26
2022-09-23T01:50:57.697Z,82.32
2022-09-23T01:53:43.320Z,82.52
2022-09-23T01:56:21.272Z,82.37
2022-09-23T01:59:04.558Z,82.61
2022-09-23T02:01:39.349Z,82.94
2022-09-23T02:04:31.265Z,82.85
2022-09-23T02:07:03.694Z,83.04
2022-09-23T02:09:37.769Z,82.96
2022-09-23T02:12:12.838Z,83.06
2022-09-23T02:14:59.806Z,83.17
2022-09-23T02:17:41.857Z,83.26
2022-09-23T02:20:13.770Z,83.14
2022-09-23T02:22:50.082Z,83.15
2022-09-23T02:25:17.463Z,83.52
2022-09-23T02:27:54.421Z,83.33
2022-09-23T02:30:27.295Z,83.18
2022-09-23T02:33:08.824Z,82.90
2022-09-23T02:35:59.345Z,82.89
2022-09-23T02:38:31.868Z,82.94
2022-09-23T02:41:10.904Z,82.94
2022-09-23T02:43:46.441Z,82.80
2022-09-23T02:46:13.444Z,83.03
2022-09-23T02:48:49.510Z,83.18
2022-09-23T02:51:16.763Z,83.34
2022-09-23T02:53:46.010Z,83.29
2022-09-23T02:56:21.153Z,83.34
2022-09-23T02:58:49.990Z,82.83
2022-09-23T03:01:45.456Z,82.93
2022-09-23T03:04:17.189Z,83.10
2022-09-23T03:06:46.772Z,82.94
2022-09-23T03:09:34.048Z,83.10
2022-09-23T03:12:39.534Z,82.93
2022-09-23T03:15:09.359Z,83.11
2022-09-23T03:17:54.623Z,83.02
2022-09-23T03:20:34.787Z,83.25
2022-09-23T03:23:06.952Z,83.35
2022-09-23T03:25:38.460Z,83.24
2022-09-23T03:28:08.372Z,83.35
2022-09-23T03:30:36.755Z,83.26
2022-09-23T03:33:09.740Z,83.26
2022-09-23T03:36:04.644Z,83.07
2022-09-23T03:38:38.082Z,83.24
2022-09-23T03:41:09.638Z,83.17
2022-09-23T03:43:38.948Z,83.36
2022-09-23T03:46:08.370Z,83.58
2022-09-23T03:48:35.342Z,83.33
2022-09-23T03:51:20.411Z,83.89
2022-09-23T03:53:48.340Z,83.97
2022-09-23T03:56:15.337Z,84.07
2022-09-23T03:58:42.794Z,84.29
2022-09-23T04:01:09.630Z,84.72
2022-09-23T04:03:36.485Z,84.62
2022-09-23T04:06:03.581Z,84.55
2022-09-23T04:08:30.530Z,84.23
2022-09-23T04:11:01.818Z,84.38
2022-09-23T04:13:29.536Z,84.74
2022-09-23T04:15:56.279Z,84.51
2022-09-23T04:18:23.585Z,84.41
2022-09-23T04:20:50.428Z,84.05
2022-09-23T04:23:17.324Z,84.09
2022-09-23T04:25:48.622Z,84.20
2022-09-23T04:28:15.929Z,83.91
2022-09-23T04:30:43.902Z,84.12
2022-09-23T04:33:11.470Z,83.92
2022-09-23T04:35:40.358Z,84.14
2022-09-23T04:38:07.759Z,84.39
2022-09-23T04:40:36.070Z,84.87
2022-09-23T04:43:03.390Z,84.88
2022-09-23T04:45:30.600Z,84.50
2022-09-23T04:47:58.713Z,84.43
2022-09-23T04:50:26.744Z,84.52
2022-09-23T04:52:54.289Z,84.41
2022-09-23T04:55:22.473Z,84.41
2022-09-23T04:57:49.263Z,84.55
2022-09-23T05:00:16.538Z,84.79
2022-09-23T05:02:48.027Z,84.44
2022-09-23T05:05:18.711Z,84.54
2022-09-23T05:07:45.419Z,84.74
2022-09-23T05:10:12.233Z,84.94
2022-09-23T05:12:39.131Z,85.14
2022-09-23T05:15:06.192Z,84.99
2022-09-23T05:17:33.032Z,84.43
2022-09-23T05:20:00.022Z,84.65
2022-09-23T05:22:26.917Z,84.63
2022-09-23T05:24:53.960Z,84.50
2022-09-23T05:27:21.166Z,84.68
2022-09-23T05:29:49.037Z,85.12
2022-09-23T05:32:16.094Z,85.13
2022-09-23T05:34:43.345Z,84.89
2022-09-23T05:37:10.441Z,84.66
2022-09-23T05:39:37.592Z,84.97
2022-09-23T05:42:04.892Z,84.97
2022-09-23T05:44:31.798Z,84.61
2022-09-23T05:46:58.767Z,84.21
2022-09-23T05:49:42.482Z,84.36
2022-09-23T05:52:12.709Z,84.86
2022-09-23T05:54:40.474Z,84.94
2022-09-23T05:57:07.403Z,84.33
2022-09-23T05:59:34.415Z,84.48
2022-09-23T06:02:02.120Z,84.77
2022-09-23T06:04:29.210Z,85.10
2022-09-23T06:07:00.271Z,85.09
2022-09-23T06:09:34.119Z,85.26
2022-09-23T06:12:04.436Z,85.52
2022-09-23T06:14:31.343Z,85.42
2022-09-23T06:16:58.442Z,85.65
2022-09-23T06:19:25.331Z,85.74
2022-09-23T06:21:52.495Z,85.58
2022-09-23T06:24:22.924Z,85.67
2022-09-23T06:26:51.978Z,85.91
2022-09-23T06:29:18.992Z,86.06
2022-09-23T06:31:46.101Z,85.66
2022-09-23T06:34:14.757Z,85.78
2022-09-23T06:36:45.519Z,86.27
2022-09-23T06:39:16.242Z,86.24
2022-09-23T06:41:44.900Z,86.05
2022-09-23T06:44:12.008Z,86.53
2022-09-23T06:46:39.113Z,86.53
2022-09-23T06:49:06.315Z,86.68
2022-09-23T06:51:33.670Z,86.91
2022-09-23T06:54:00.721Z,87.24
2022-09-23T06:56:27.947Z,87.05
2022-09-23T06:58:54.925Z,87.18
2022-09-23T07:01:23.036Z,87.23
2022-09-23T07:03:50.494Z,87.15
2022-09-23T07:06:18.123Z,87.13
2022-09-23T07:08:47.547Z,87.08
2022-09-23T07:11:20.955Z,86.97
2022-09-23T07:13:47.784Z,86.90
2022-09-23T07:16:14.921Z,86.71
2022-09-23T07:18:42.959Z,86.60
2022-09-23T07:21:15.693Z,86.34
2022-09-23T07:23:52.780Z,86.23
2022-09-23T07:26:20.348Z,86.02
2022-09-23T07:28:47.341Z,85.79
2022-09-23T07:31:24.104Z,85.63
2022-09-23T07:33:57.819Z,85.54
2022-09-23T07:36:28.040Z,85.18
2022-09-23T07:39:00.691Z,85.10
2022-09-23T07:41:29.105Z,84.64
2022-09-23T07:43:59.029Z,84.40
2022-09-23T07:46:28.212Z,84.09
2022-09-23T07:48:55.276Z,84.26
2022-09-23T07:51:26.315Z,83.81
2022-09-23T07:53:54.919Z,83.96
2022-09-23T07:56:25.810Z,83.58
2022-09-23T07:59:03.843Z,82.84
2022-09-23T08:01:36.170Z,82.20
2022-09-23T08:04:09.361Z,82.01
2022-09-23T08:06:39.876Z,81.78
2022-09-23T08:09:06.913Z,81.45
2022-09-23T08:11:34.152Z,80.94
2022-09-23T08:14:01.083Z,80.51
2022-09-23T08:16:28.402Z,80.72
2022-09-23T08:18:55.301Z,80.43
2022-09-23T08:21:23.253Z,80.63
2022-09-23T08:23:51.873Z,80.92
2022-09-23T08:26:22.137Z,80.50
2022-09-23T08:28:50.389Z,80.33
2022-09-23T08:31:17.567Z,78.92
2022-09-23T08:33:44.525Z,78.51
2022-09-23T08:36:11.497Z,78.22
2022-09-23T08:38:38.429Z,78.45
2022-09-23T08:41:25.566Z,78.22
2022-09-23T08:44:02.228Z,78.64
2022-09-23T08:46:43.602Z,78.17
2022-09-23T08:49:17.621Z,77.74
2022-09-23T08:51:47.533Z,77.19
2022-09-23T08:54:18.060Z,76.85
2022-09-23T08:56:49.305Z,75.12
2022-09-23T08:59:43.824Z,75.79
2022-09-23T09:02:22.879Z,75.28
2022-09-23T09:04:54.709Z,75.52
2022-09-23T09:07:38.516Z,75.59
2022-09-23T09:10:27.046Z,75.88
2022-09-23T09:13:07.613Z,75.92
2022-09-23T09:15:45.241Z,75.78
2022-09-23T09:18:21.512Z,75.94
2022-09-23T09:20:48.302Z,75.78
2022-09-23T09:23:34.860Z,75.42
2022-09-23T09:26:03.258Z,75.57
2022-09-23T09:28:39.322Z,75.77
2022-09-23T09:31:36.862Z,75.04
2022-09-23T09:34:24.768Z,74.75
2022-09-23T09:37:14.022Z,74.45
2022-09-23T09:39:41.122Z,74.71
2022-09-23T09:42:20.404Z,74.04
2022-09-23T09:44:58.865Z,75.00
2022-09-23T09:47:56.748Z,75.09
2022-09-23T09:50:47.339Z,74.45
2022-09-23T09:53:35.871Z,73.63
2022-09-23T09:56:05.293Z,72.45
2022-09-23T09:58:48.306Z,72.00
2022-09-23T10:01:35.318Z,72.03
2022-09-23T10:04:06.450Z,71.06
2022-09-23T10:06:36.048Z,70.83
2022-09-23T10:09:26.226Z,70.62
2022-09-23T10:12:13.243Z,69.84
2022-09-23T10:14:40.191Z,68.78
2022-09-23T10:17:15.622Z,68.70
2022-09-23T10:19:48.408Z,68.67
2022-09-23T10:22:33.621Z,69.20
2022-09-23T10:25:07.678Z,68.76
2022-09-23T10:27:36.726Z,68.50
2022-09-23T10:30:23.198Z,67.77
2022-09-23T10:32:55.151Z,67.34
2022-09-23T10:35:24.728Z,65.80
2022-09-23T10:37:54.024Z,66.03
2022-09-23T10:40:50.814Z,65.89
2022-09-23T10:44:11.217Z,66.38
2022-09-23T10:46:51.450Z,66.61
2022-09-23T10:49:58.828Z,67.10
2022-09-23T10:52:54.855Z,68.14
2022-09-23T10:55:35.539Z,67.28
2022-09-23T10:58:37.293Z,67.11
2022-09-23T11:01:37.713Z,66.60
2022-09-23T11:04:38.469Z,67.59
2022-09-23T11:07:08.438Z,67.00
2022-09-23T11:09:48.743Z,67.89
2022-09-23T11:12:24.659Z,66.79
2022-09-23T11:15:00.619Z,67.64
2022-09-23T11:17:51.577Z,66.27
2022-09-23T11:20:22.026Z,67.33
2022-09-23T11:23:34.816Z,65.56
2022-09-23T11:26:13.906Z,64.79
2022-09-23T11:28:55.344Z,66.71
2022-09-23T11:31:34.269Z,66.35
2022-09-23T11:34:39.521Z,67.45
2022-09-23T11:37:18.757Z,67.49
2022-09-23T11:40:03.369Z,67.37
2022-09-23T11:42:36.760Z,67.35
2022-09-23T11:45:15.117Z,67.45
2022-09-23T11:47:56.764Z,64.87
2022-09-23T11:50:42.337Z,65.86
2022-09-23T11:53:23.110Z,66.87
2022-09-23T11:56:24.292Z,65.11
2022-09-23T11:59:11.215Z,65.16
2022-09-23T12:01:50.029Z,65.27
2022-09-23T12:04:24.273Z,62.96
2022-09-23T12:07:19.011Z,63.15
2022-09-23T12:10:07.177Z,63.19
2022-09-23T12:12:48.914Z,63.68
2022-09-23T12:15:37.424Z,64.50
2022-09-23T12:18:43.113Z,63.34
2022-09-23T12:21:38.845Z,62.78
2022-09-23T12:24:22.341Z,63.60
2022-09-23T12:26:54.540Z,63.77
2022-09-23T12:29:24.929Z,62.50
2022-09-23T12:31:52.017Z,64.80
2022-09-23T12:34:25.113Z,62.91
2022-09-23T12:36:52.515Z,64.33
2022-09-23T12:39:31.859Z,65.11
2022-09-23T12:42:20.912Z,65.77
2022-09-23T12:44:49.110Z,63.82
2022-09-23T12:47:21.415Z,65.47
2022-09-23T12:49:49.702Z,64.44
2022-09-23T12:52:16.709Z,63.95
2022-09-23T12:54:48.451Z,64.91
2022-09-23T12:57:33.331Z,64.56
2022-09-23T13:00:23.206Z,63.72
2022-09-23T13:03:08.281Z,63.77
2022-09-23T13:06:20.531Z,64.75
2022-09-23T13:08:49.636Z,62.88
2022-09-23T13:11:27.747Z,62.14
2022-09-23T13:13:56.733Z,61.80
2022-09-23T13:16:29.474Z,63.67
2022-09-23T13:19:01.326Z,63.10
2022-09-23T13:21:43.538Z,62.59
2022-09-23T13:24:12.997Z,64.31
2022-09-23T13:27:05.679Z,64.01
2022-09-23T13:29:49.683Z,63.76
2022-09-23T13:32:21.099Z,62.03
2022-09-23T13:35:02.415Z,62.94
2022-09-23T13:37:38.171Z,63.52
2022-09-23T13:40:16.589Z,62.99
2022-09-23T13:42:46.107Z,63.01
2022-09-23T13:45:19.203Z,62.50
2022-09-23T13:47:48.288Z,62.62
2022-09-23T13:50:19.885Z,63.64
2022-09-23T13:52:52.839Z,64.72
2022-09-23T13:55:37.693Z,61.85
2022-09-23T13:58:19.444Z,62.77
2022-09-23T14:00:49.534Z,63.62
2022-09-23T14:03:36.454Z,63.87
2022-09-23T14:06:14.742Z,64.41
2022-09-23T14:08:45.519Z,62.92
2022-09-23T14:11:22.209Z,64.25
2022-09-23T14:13:54.366Z,64.36
2022-09-23T14:16:25.352Z,61.35
2022-09-23T14:18:57.406Z,62.88
2022-09-23T14:21:38.600Z,64.47
2022-09-23T14:24:15.488Z,63.54
2022-09-23T14:26:44.969Z,62.65
2022-09-23T14:29:33.479Z,62.11
2022-09-23T14:32:21.418Z,61.96
2022-09-23T14:35:00.453Z,63.22
2022-09-23T14:37:45.723Z,63.60
2022-09-23T14:40:34.773Z,63.95
2022-09-23T14:43:22.938Z,63.72
2022-09-23T14:45:56.040Z,63.58
2022-09-23T14:48:28.917Z,63.75
2022-09-23T14:51:04.846Z,64.94
2022-09-23T14:53:43.064Z,65.04
2022-09-23T14:56:21.091Z,66.01
2022-09-23T14:58:56.681Z,65.76
2022-09-23T15:01:32.929Z,66.48
2022-09-23T15:04:10.077Z,66.28
2022-09-23T15:06:39.597Z,66.45
2022-09-23T15:09:07.658Z,66.14
2022-09-23T15:11:36.249Z,67.01
2022-09-23T15:14:33.251Z,67.27
2022-09-23T15:16:53.741Z,67.92
2022-09-23T15:19:21.829Z,68.77
2022-09-23T15:21:54.509Z,68.80
2022-09-23T15:25:14.786Z,69.06
2022-09-23T15:27:41.838Z,69.53
2022-09-23T15:30:18.032Z,70.17
2022-09-23T15:32:46.141Z,69.79
2022-09-23T15:35:19.020Z,70.30
2022-09-23T15:37:48.830Z,70.61
2022-09-23T15:40:26.144Z,70.53
2022-09-23T15:43:07.249Z,70.34
2022-09-23T15:45:44.031Z,70.59
2022-09-23T15:48:17.492Z,70.98
2022-09-23T15:50:47.311Z,71.14
2022-09-23T15:53:17.722Z,70.76
2022-09-23T15:55:45.429Z,71.04
2022-09-23T15:58:12.424Z,71.39
2022-09-23T16:00:39.658Z,71.63
2022-09-23T16:03:06.837Z,71.40
2022-09-23T16:05:38.068Z,72.12
2022-09-23T16:08:10.071Z,72.12
2022-09-23T16:10:37.849Z,72.34
2022-09-23T16:13:07.922Z,72.74
2022-09-23T16:15:34.883Z,72.83
2022-09-23T16:18:01.875Z,73.14
2022-09-23T16:20:30.522Z,73.29
2022-09-23T16:23:01.467Z,73.77
2022-09-23T16:25:31.776Z,73.62
2022-09-23T16:27:59.133Z,73.85
2022-09-23T16:30:27.870Z,74.42
2022-09-23T16:32:55.387Z,74.44
2022-09-23T16:35:24.894Z,74.80
2022-09-23T16:37:52.507Z,75.20
2022-09-23T16:40:21.763Z,75.43
2022-09-23T16:42:49.718Z,75.92
2022-09-23T16:45:18.347Z,76.03
2022-09-23T16:47:47.711Z,76.41
2022-09-23T16:50:17.485Z,76.85
2022-09-23T16:52:45.181Z,77.00
2022-09-23T16:55:13.988Z,77.49
2022-09-23T16:57:41.386Z,77.40
2022-09-23T17:00:34.607Z,77.93
2022-09-23T17:03:20.783Z,78.17
2022-09-23T17:05:49.385Z,78.40
2022-09-23T17:08:18.098Z,78.82
2022-09-23T17:10:55.194Z,79.02
2022-09-23T17:13:21.977Z,79.13
2022-09-23T17:15:48.865Z,79.33
2022-09-23T17:18:19.452Z,79.39
2022-09-23T17:21:07.874Z,79.75
2022-09-23T17:23:36.149Z,79.52
2022-09-23T17:26:03.195Z,79.44
2022-09-23T17:28:30.091Z,79.54
2022-09-23T17:31:02.049Z,79.53
2022-09-23T17:33:31.103Z,79.50
2022-09-23T17:36:00.290Z,79.72
2022-09-23T17:38:29.281Z,79.77
2022-09-23T17:40:59.515Z,79.88
2022-09-23T17:43:26.820Z,79.90
2022-09-23T17:45:56.349Z,80.04
2022-09-23T17:48:25.491Z,80.17
2022-09-23T17:50:56.048Z,80.14
2022-09-23T17:53:23.922Z,80.12
2022-09-23T17:56:01.971Z,80.27
2022-09-23T17:58:30.301Z,80.45
2022-09-23T18:00:58.339Z,80.42
2022-09-23T18:03:27.724Z,80.50
2022-09-23T18:05:55.249Z,80.36
2022-09-23T18:08:22.128Z,80.38
2022-09-23T18:10:49.097Z,80.35
2022-09-23T18:13:15.926Z,80.36
2022-09-23T18:15:42.862Z,80.37
2022-09-23T18:18:09.862Z,80.62
2022-09-23T18:20:36.614Z,80.51
2022-09-23T18:23:03.500Z,80.42
2022-09-23T18:25:39.595Z,80.57
2022-09-23T18:28:07.184Z,80.98
2022-09-23T18:30:34.064Z,80.83
2022-09-23T18:33:01.788Z,80.69
2022-09-23T18:35:28.876Z,80.84
2022-09-23T18:37:56.158Z,80.67
2022-09-23T18:40:23.141Z,80.84
2022-09-23T18:42:50.444Z,80.83
2022-09-23T18:45:17.324Z,80.92
2022-09-23T18:48:02.719Z,80.82
2022-09-23T18:50:43.430Z,81.08
2022-09-23T18:53:10.637Z,81.02
2022-09-23T18:55:38.229Z,80.99
2022-09-23T18:58:07.493Z,81.15
2022-09-23T19:00:35.104Z,81.41
2022-09-23T19:03:02.406Z,81.39
2022-09-23T19:05:29.512Z,81.85
2022-09-23T19:07:56.393Z,82.10
2022-09-23T19:10:23.240Z,82.38
2022-09-23T19:12:50.240Z,82.83
2022-09-23T19:15:17.396Z,82.58
2022-09-23T19:17:44.289Z,82.34
2022-09-23T19:20:11.285Z,82.55
2022-09-23T19:22:38.346Z,82.48
2022-09-23T19:25:05.736Z,82.60
2022-09-23T19:27:33.413Z,82.42
2022-09-23T19:30:00.270Z,82.72
2022-09-23T19:32:27.249Z,83.32
2022-09-23T19:34:54.138Z,83.43
2022-09-23T19:37:21.187Z,83.61
2022-09-23T19:39:48.335Z,83.50
2022-09-23T19:42:15.176Z,83.93
2022-09-23T19:44:42.039Z,83.94
2022-09-23T19:47:15.581Z,83.63
2022-09-23T19:49:42.630Z,83.79
2022-09-23T19:52:09.569Z,84.04
2022-09-23T19:54:37.756Z,84.34
2022-09-23T19:57:04.753Z,84.62
2022-09-23T19:59:31.755Z,84.47
2022-09-23T20:01:58.635Z,84.29
2022-09-23T20:04:26.306Z,84.16
2022-09-23T20:06:53.134Z,84.27
2022-09-23T20:09:20.074Z,83.97
2022-09-23T20:11:46.979Z,84.38
2022-09-23T20:14:14.040Z,84.65
2022-09-23T20:16:41.003Z,84.74
2022-09-23T20:19:10.183Z,84.52
2022-09-23T20:21:37.177Z,84.88
2022-09-23T20:24:05.882Z,85.13
2022-09-23T20:26:51.605Z,85.37
2022-09-23T20:29:18.809Z,85.34
2022-09-23T20:31:46.037Z,85.55
2022-09-23T20:34:13.100Z,85.73
2022-09-23T20:36:41.487Z,85.40
2022-09-23T20:39:10.026Z,85.73
2022-09-23T20:41:38.652Z,85.59
2022-09-23T20:44:12.709Z,85.55
2022-09-23T20:46:46.778Z,85.47
2022-09-23T20:49:15.826Z,85.33
2022-09-23T20:51:42.829Z,85.39
2022-09-23T20:54:09.822Z,85.38
2022-09-23T20:56:36.726Z,85.38
2022-09-23T20:59:04.940Z,85.11
2022-09-23T21:01:36.732Z,85.43
2022-09-23T21:04:05.957Z,85.03
2022-09-23T21:06:37.959Z,84.94
2022-09-23T21:09:06.196Z,85.09
2022-09-23T21:11:34.074Z,85.45
2022-09-23T21:14:01.691Z,85.59
2022-09-23T21:16:28.750Z,85.45
2022-09-23T21:18:55.654Z,85.29
2022-09-23T21:21:22.714Z,85.56
2022-09-23T21:23:50.588Z,85.59
2022-09-23T21:26:20.764Z,85.56
2022-09-23T21:28:59.827Z,85.17
2022-09-23T21:31:32.382Z,85.68
2022-09-23T21:34:01.806Z,85.99
2022-09-23T21:36:31.059Z,85.82
2022-09-23T21:38:58.287Z,85.77
2022-09-23T21:41:25.256Z,85.72
2022-09-23T21:43:52.162Z,85.96
2022-09-23T21:46:20.855Z,85.85
2022-09-23T21:48:53.038Z,85.79
2022-09-23T21:51:28.876Z,85.53
2022-09-23T21:53:57.756Z,85.70
2022-09-23T21:56:30.236Z,85.93
2022-09-23T21:58:59.705Z,86.06
2022-09-23T22:01:38.462Z,85.89
2022-09-23T22:04:17.328Z,86.14
2022-09-23T22:06:45.721Z,85.96
2022-09-23T22:09:15.738Z,85.84
2022-09-23T22:12:01.473Z,86.04
2022-09-23T22:14:29.749Z,86.02
2022-09-23T22:17:00.077Z,86.17
2022-09-23T22:19:35.767Z,85.80
2022-09-23T22:22:07.942Z,86.15
2022-09-23T22:24:34.894Z,86.05
2022-09-23T22:27:01.836Z,86.03
2022-09-23T22:29:47.269Z,86.06
2022-09-23T22:32:32.856Z,86.05
2022-09-23T22:34:59.647Z,86.29
2022-09-23T22:37:34.395Z,86.52
2022-09-23T22:40:06.640Z,86.47
2022-09-23T22:42:33.747Z,86.62
2022-09-23T22:45:00.741Z,86.77
2022-09-23T22:47:27.733Z,86.87
2022-09-23T22:49:55.645Z,86.97
2022-09-23T22:52:24.563Z,87.08
2022-09-23T22:54:52.201Z,86.99
2022-09-23T22:57:22.223Z,87.05
2022-09-23T22:59:49.123Z,87.10
2022-09-23T23:02:18.213Z,87.04
2022-09-23T23:04:47.314Z,87.10
2022-09-23T23:07:16.262Z,87.38
2022-09-23T23:09:43.203Z,87.02
2022-09-23T23:12:10.055Z,87.28
2022-09-23T23:14:38.132Z,87.29
2022-09-23T23:17:07.673Z,87.62
2022-09-23T23:19:37.141Z,87.63
2022-09-23T23:22:07.004Z,87.48
2022-09-23T23:24:33.938Z,87.71
2022-09-23T23:27:00.885Z,87.54
2022-09-23T23:29:28.038Z,87.72
2022-09-23T23:31:55.082Z,87.87
2022-09-23T23:34:23.309Z,87.81
2022-09-23T23:36:56.389Z,87.82
2022-09-23T23:39:24.978Z,87.95
2022-09-23T23:41:57.106Z,87.68
2022-09-23T23:44:25.747Z,87.75
2022-09-23T23:46:53.942Z,87.84
2022-09-23T23:49:21.746Z,87.72
2022-09-23T23:51:49.239Z,87.79
2022-09-23T23:54:16.389Z,87.74
2022-09-23T23:56:43.391Z,87.74
2022-09-23T23:59:10.385Z,87.75
